sensor_id;sensor_type;location;lat;lon;timestamp;temperature;humidity
24772;DHT22;12870;52.274;9.754;2022-07-01T00:00:26;20.40;99.90
24772;DHT22;12870;52.274;9.754;2022-07-01T00:02:52;20.40;99.90
24772;DHT22;12870;52.274;9.754;2022-07-01T00:05:17;20.30;99.90
24772;DHT22;12870;52.274;9.754;2022-07-01T00:07:43;20.30;99.90
24772;DHT22;12870;52.274;9.754;2022-07-01T00:10:09;20.20;99.90
24772;DHT22;12870;52.274;9.754;2022-07-01T00:12:35;20.20;99.90
24772;DHT22;12870;52.274;9.754;2022-07-01T00:15:00;20.10;99.90
24772;DHT22;12870;52.274;9.754;2022-07-01T00:17:26;20.00;99.90
24772;DHT22;12870;52.274;9.754;2022-07-01T00:19:52;20.00;99.90
24772;DHT22;12870;52.274;9.754;2022-07-01T00:22:17;20.00;99.90
24772;DHT22;12870;52.274;9.754;2022-07-01T00:24:43;20.00;99.90
24772;DHT22;12870;52.274;9.754;2022-07-01T00:27:10;20.00;99.90
24772;DHT22;12870;52.274;9.754;2022-07-01T00:29:36;19.90;99.90
24772;DHT22;12870;52.274;9.754;2022-07-01T00:32:02;19.90;99.90
24772;DHT22;12870;52.274;9.754;2022-07-01T00:34:28;19.90;99.90
24772;DHT22;12870;52.274;9.754;2022-07-01T00:36:53;19.90;99.90
24772;DHT22;12870;52.274;9.754;2022-07-01T00:39:19;19.80;99.90
24772;DHT22;12870;52.274;9.754;2022-07-01T00:41:44;19.80;99.90
24772;DHT22;12870;52.274;9.754;2022-07-01T00:44:20;19.70;99.90
24772;DHT22;12870;52.274;9.754;2022-07-01T00:46:50;19.70;99.90
24772;DHT22;12870;52.274;9.754;2022-07-01T00:49:16;19.60;99.90
24772;DHT22;12870;52.274;9.754;2022-07-01T00:51:43;19.40;99.90
24772;DHT22;12870;52.274;9.754;2022-07-01T00:54:09;19.40;99.90
24772;DHT22;12870;52.274;9.754;2022-07-01T00:56:35;19.40;99.90
24772;DHT22;12870;52.274;9.754;2022-07-01T00:59:01;19.40;99.90
24772;DHT22;12870;52.274;9.754;2022-07-01T01:01:27;19.30;99.90
24772;DHT22;12870;52.274;9.754;2022-07-01T01:03:53;19.20;99.90
24772;DHT22;12870;52.274;9.754;2022-07-01T01:06:19;19.00;99.90
24772;DHT22;12870;52.274;9.754;2022-07-01T01:08:45;19.00;99.90
24772;DHT22;12870;52.274;9.754;2022-07-01T01:11:11;18.90;99.90
24772;DHT22;12870;52.274;9.754;2022-07-01T01:13:37;18.90;99.90
24772;DHT22;12870;52.274;9.754;2022-07-01T01:16:03;18.90;99.90
24772;DHT22;12870;52.274;9.754;2022-07-01T01:18:28;18.70;99.90
24772;DHT22;12870;52.274;9.754;2022-07-01T01:20:54;18.70;99.90
24772;DHT22;12870;52.274;9.754;2022-07-01T01:23:20;18.70;99.90
24772;DHT22;12870;52.274;9.754;2022-07-01T01:25:49;18.50;99.90
24772;DHT22;12870;52.274;9.754;2022-07-01T01:28:15;18.40;99.90
24772;DHT22;12870;52.274;9.754;2022-07-01T01:30:40;18.30;99.90
24772;DHT22;12870;52.274;9.754;2022-07-01T01:33:06;18.40;99.90
24772;DHT22;12870;52.274;9.754;2022-07-01T01:35:37;18.20;99.90
24772;DHT22;12870;52.274;9.754;2022-07-01T01:38:03;18.10;99.90
24772;DHT22;12870;52.274;9.754;2022-07-01T01:40:28;18.00;99.90
24772;DHT22;12870;52.274;9.754;2022-07-01T01:42:54;18.00;99.90
24772;DHT22;12870;52.274;9.754;2022-07-01T01:45:20;18.10;99.90
24772;DHT22;12870;52.274;9.754;2022-07-01T01:47:45;18.00;99.90
24772;DHT22;12870;52.274;9.754;2022-07-01T01:50:12;17.90;99.90
24772;DHT22;12870;52.274;9.754;2022-07-01T01:52:39;17.80;99.90
24772;DHT22;12870;52.274;9.754;2022-07-01T01:55:08;17.80;99.90
24772;DHT22;12870;52.274;9.754;2022-07-01T01:57:34;17.80;99.90
24772;DHT22;12870;52.274;9.754;2022-07-01T02:00:00;17.70;99.90
24772;DHT22;12870;52.274;9.754;2022-07-01T02:02:26;17.70;99.90
24772;DHT22;12870;52.274;9.754;2022-07-01T02:04:52;17.70;99.90
24772;DHT22;12870;52.274;9.754;2022-07-01T02:07:18;17.60;99.90
24772;DHT22;12870;52.274;9.754;2022-07-01T02:09:43;17.60;99.90
24772;DHT22;12870;52.274;9.754;2022-07-01T02:12:09;17.50;99.90
24772;DHT22;12870;52.274;9.754;2022-07-01T02:14:35;17.50;99.90
24772;DHT22;12870;52.274;9.754;2022-07-01T02:17:01;17.50;99.90
24772;DHT22;12870;52.274;9.754;2022-07-01T02:19:26;17.40;99.90
24772;DHT22;12870;52.274;9.754;2022-07-01T02:21:52;17.30;99.90
24772;DHT22;12870;52.274;9.754;2022-07-01T02:24:18;17.40;99.90
24772;DHT22;12870;52.274;9.754;2022-07-01T02:26:44;17.40;99.90
24772;DHT22;12870;52.274;9.754;2022-07-01T02:29:10;17.50;99.90
24772;DHT22;12870;52.274;9.754;2022-07-01T02:31:36;17.40;99.90
24772;DHT22;12870;52.274;9.754;2022-07-01T02:34:02;17.50;99.90
24772;DHT22;12870;52.274;9.754;2022-07-01T02:36:27;17.50;99.90
24772;DHT22;12870;52.274;9.754;2022-07-01T02:38:53;17.60;99.90
24772;DHT22;12870;52.274;9.754;2022-07-01T02:41:18;17.50;99.90
24772;DHT22;12870;52.274;9.754;2022-07-01T02:43:44;17.60;99.90
24772;DHT22;12870;52.274;9.754;2022-07-01T02:46:10;17.60;99.90
24772;DHT22;12870;52.274;9.754;2022-07-01T02:48:35;17.60;99.90
24772;DHT22;12870;52.274;9.754;2022-07-01T02:51:01;17.50;99.90
24772;DHT22;12870;52.274;9.754;2022-07-01T02:53:27;17.20;99.90
24772;DHT22;12870;52.274;9.754;2022-07-01T02:55:54;17.10;99.90
24772;DHT22;12870;52.274;9.754;2022-07-01T02:58:19;17.10;99.90
24772;DHT22;12870;52.274;9.754;2022-07-01T03:00:45;17.00;99.90
24772;DHT22;12870;52.274;9.754;2022-07-01T03:03:12;16.90;99.90
24772;DHT22;12870;52.274;9.754;2022-07-01T03:05:37;16.80;99.90
24772;DHT22;12870;52.274;9.754;2022-07-01T03:08:03;16.80;99.90
24772;DHT22;12870;52.274;9.754;2022-07-01T03:10:29;16.80;99.90
24772;DHT22;12870;52.274;9.754;2022-07-01T03:12:55;16.90;99.90
24772;DHT22;12870;52.274;9.754;2022-07-01T03:15:21;16.90;99.90
24772;DHT22;12870;52.274;9.754;2022-07-01T03:17:47;16.90;99.90
24772;DHT22;12870;52.274;9.754;2022-07-01T03:20:15;17.00;99.90
24772;DHT22;12870;52.274;9.754;2022-07-01T03:22:42;17.10;99.90
24772;DHT22;12870;52.274;9.754;2022-07-01T03:25:09;17.10;99.90
24772;DHT22;12870;52.274;9.754;2022-07-01T03:27:35;17.10;99.90
24772;DHT22;12870;52.274;9.754;2022-07-01T03:30:04;17.10;99.90
24772;DHT22;12870;52.274;9.754;2022-07-01T03:32:30;17.00;99.90
24772;DHT22;12870;52.274;9.754;2022-07-01T03:34:56;16.90;99.90
24772;DHT22;12870;52.274;9.754;2022-07-01T03:37:22;16.90;99.90
24772;DHT22;12870;52.274;9.754;2022-07-01T03:39:48;16.80;99.90
24772;DHT22;12870;52.274;9.754;2022-07-01T03:42:14;16.90;99.90
24772;DHT22;12870;52.274;9.754;2022-07-01T03:44:40;16.80;99.90
24772;DHT22;12870;52.274;9.754;2022-07-01T03:47:06;16.70;99.90
24772;DHT22;12870;52.274;9.754;2022-07-01T03:49:35;16.60;99.90
24772;DHT22;12870;52.274;9.754;2022-07-01T03:52:03;16.50;99.90
24772;DHT22;12870;52.274;9.754;2022-07-01T03:54:29;16.40;99.90
24772;DHT22;12870;52.274;9.754;2022-07-01T03:56:59;16.50;99.90
24772;DHT22;12870;52.274;9.754;2022-07-01T03:59:26;16.40;99.90
24772;DHT22;12870;52.274;9.754;2022-07-01T04:01:56;16.40;99.90
24772;DHT22;12870;52.274;9.754;2022-07-01T04:04:23;16.40;99.90
24772;DHT22;12870;52.274;9.754;2022-07-01T04:06:49;16.40;99.90
24772;DHT22;12870;52.274;9.754;2022-07-01T04:09:16;16.40;99.90
24772;DHT22;12870;52.274;9.754;2022-07-01T04:11:44;16.40;99.90
24772;DHT22;12870;52.274;9.754;2022-07-01T04:14:10;16.40;99.90
24772;DHT22;12870;52.274;9.754;2022-07-01T04:16:36;16.40;99.90
24772;DHT22;12870;52.274;9.754;2022-07-01T04:19:02;16.40;99.90
24772;DHT22;12870;52.274;9.754;2022-07-01T04:21:28;16.40;99.90
24772;DHT22;12870;52.274;9.754;2022-07-01T04:24:12;16.50;99.90
24772;DHT22;12870;52.274;9.754;2022-07-01T04:26:41;16.50;99.90
24772;DHT22;12870;52.274;9.754;2022-07-01T04:29:07;16.50;99.90
24772;DHT22;12870;52.274;9.754;2022-07-01T04:31:34;16.40;99.90
24772;DHT22;12870;52.274;9.754;2022-07-01T04:34:00;16.30;99.90
24772;DHT22;12870;52.274;9.754;2022-07-01T04:36:26;16.30;99.90
24772;DHT22;12870;52.274;9.754;2022-07-01T04:38:51;16.30;99.90
24772;DHT22;12870;52.274;9.754;2022-07-01T04:41:17;16.30;99.90
24772;DHT22;12870;52.274;9.754;2022-07-01T04:44:01;16.30;99.90
24772;DHT22;12870;52.274;9.754;2022-07-01T04:46:27;16.30;99.90
24772;DHT22;12870;52.274;9.754;2022-07-01T04:48:53;16.40;99.90
24772;DHT22;12870;52.274;9.754;2022-07-01T04:51:19;16.40;99.90
24772;DHT22;12870;52.274;9.754;2022-07-01T04:53:46;16.40;99.90
24772;DHT22;12870;52.274;9.754;2022-07-01T04:56:12;16.40;99.90
24772;DHT22;12870;52.274;9.754;2022-07-01T04:58:38;16.30;99.90
24772;DHT22;12870;52.274;9.754;2022-07-01T05:01:03;16.20;99.90
24772;DHT22;12870;52.274;9.754;2022-07-01T05:03:29;16.30;99.90
24772;DHT22;12870;52.274;9.754;2022-07-01T05:05:55;16.20;99.90
24772;DHT22;12870;52.274;9.754;2022-07-01T05:08:20;16.20;99.90
24772;DHT22;12870;52.274;9.754;2022-07-01T05:10:46;16.20;99.90
24772;DHT22;12870;52.274;9.754;2022-07-01T05:13:12;16.20;99.90
24772;DHT22;12870;52.274;9.754;2022-07-01T05:15:38;16.20;99.90
24772;DHT22;12870;52.274;9.754;2022-07-01T05:18:04;16.20;99.90
24772;DHT22;12870;52.274;9.754;2022-07-01T05:20:48;16.20;99.90
24772;DHT22;12870;52.274;9.754;2022-07-01T05:23:32;16.20;99.90
24772;DHT22;12870;52.274;9.754;2022-07-01T05:25:58;16.20;99.90
24772;DHT22;12870;52.274;9.754;2022-07-01T05:28:23;16.20;99.90
24772;DHT22;12870;52.274;9.754;2022-07-01T05:30:49;16.20;99.90
24772;DHT22;12870;52.274;9.754;2022-07-01T05:33:15;16.20;99.90
24772;DHT22;12870;52.274;9.754;2022-07-01T05:35:41;16.20;99.90
24772;DHT22;12870;52.274;9.754;2022-07-01T05:38:06;16.20;99.90
24772;DHT22;12870;52.274;9.754;2022-07-01T05:40:32;16.20;99.90
24772;DHT22;12870;52.274;9.754;2022-07-01T05:42:57;16.10;99.90
24772;DHT22;12870;52.274;9.754;2022-07-01T05:45:23;16.20;99.90
24772;DHT22;12870;52.274;9.754;2022-07-01T05:47:49;16.20;99.90
24772;DHT22;12870;52.274;9.754;2022-07-01T05:50:15;16.10;99.90
24772;DHT22;12870;52.274;9.754;2022-07-01T05:52:41;16.20;99.90
24772;DHT22;12870;52.274;9.754;2022-07-01T05:55:09;16.40;99.90
24772;DHT22;12870;52.274;9.754;2022-07-01T05:57:36;16.50;99.90
24772;DHT22;12870;52.274;9.754;2022-07-01T06:00:02;16.50;99.90
24772;DHT22;12870;52.274;9.754;2022-07-01T06:02:28;16.50;99.90
24772;DHT22;12870;52.274;9.754;2022-07-01T06:04:54;16.70;99.90
24772;DHT22;12870;52.274;9.754;2022-07-01T06:07:19;16.70;99.90
24772;DHT22;12870;52.274;9.754;2022-07-01T06:09:45;16.80;99.90
24772;DHT22;12870;52.274;9.754;2022-07-01T06:12:11;16.70;99.90
24772;DHT22;12870;52.274;9.754;2022-07-01T06:14:36;16.70;99.90
24772;DHT22;12870;52.274;9.754;2022-07-01T06:17:04;16.70;99.90
24772;DHT22;12870;52.274;9.754;2022-07-01T06:19:29;16.70;99.90
24772;DHT22;12870;52.274;9.754;2022-07-01T06:21:55;16.80;99.90
24772;DHT22;12870;52.274;9.754;2022-07-01T06:24:21;16.60;99.90
24772;DHT22;12870;52.274;9.754;2022-07-01T06:26:47;16.60;99.90
24772;DHT22;12870;52.274;9.754;2022-07-01T06:29:13;16.60;99.90
24772;DHT22;12870;52.274;9.754;2022-07-01T06:31:39;16.70;99.90
24772;DHT22;12870;52.274;9.754;2022-07-01T06:34:05;16.70;99.90
24772;DHT22;12870;52.274;9.754;2022-07-01T06:36:30;16.80;99.90
24772;DHT22;12870;52.274;9.754;2022-07-01T06:38:56;16.80;99.90
24772;DHT22;12870;52.274;9.754;2022-07-01T06:41:22;16.80;99.90
24772;DHT22;12870;52.274;9.754;2022-07-01T06:44:01;16.90;99.90
24772;DHT22;12870;52.274;9.754;2022-07-01T06:46:28;17.10;99.90
24772;DHT22;12870;52.274;9.754;2022-07-01T06:48:54;17.10;99.90
24772;DHT22;12870;52.274;9.754;2022-07-01T06:51:21;17.10;99.90
24772;DHT22;12870;52.274;9.754;2022-07-01T06:53:47;17.20;99.90
24772;DHT22;12870;52.274;9.754;2022-07-01T06:56:16;17.20;99.90
24772;DHT22;12870;52.274;9.754;2022-07-01T06:58:42;17.20;99.90
24772;DHT22;12870;52.274;9.754;2022-07-01T07:01:08;17.20;99.90
24772;DHT22;12870;52.274;9.754;2022-07-01T07:03:34;17.20;99.90
24772;DHT22;12870;52.274;9.754;2022-07-01T07:06:00;17.30;99.90
24772;DHT22;12870;52.274;9.754;2022-07-01T07:08:27;17.20;99.90
24772;DHT22;12870;52.274;9.754;2022-07-01T07:10:53;17.10;99.90
24772;DHT22;12870;52.274;9.754;2022-07-01T07:13:19;16.90;99.90
24772;DHT22;12870;52.274;9.754;2022-07-01T07:15:45;16.80;99.90
24772;DHT22;12870;52.274;9.754;2022-07-01T07:18:10;16.80;99.90
24772;DHT22;12870;52.274;9.754;2022-07-01T07:20:36;16.60;99.90
24772;DHT22;12870;52.274;9.754;2022-07-01T07:23:02;16.70;99.90
24772;DHT22;12870;52.274;9.754;2022-07-01T07:25:28;16.60;99.90
24772;DHT22;12870;52.274;9.754;2022-07-01T07:27:54;16.40;99.90
24772;DHT22;12870;52.274;9.754;2022-07-01T07:30:20;16.40;99.90
24772;DHT22;12870;52.274;9.754;2022-07-01T07:32:46;16.50;99.90
24772;DHT22;12870;52.274;9.754;2022-07-01T07:35:12;16.40;99.90
24772;DHT22;12870;52.274;9.754;2022-07-01T07:37:39;16.30;99.90
24772;DHT22;12870;52.274;9.754;2022-07-01T07:40:06;16.20;99.90
24772;DHT22;12870;52.274;9.754;2022-07-01T07:42:33;16.20;99.90
24772;DHT22;12870;52.274;9.754;2022-07-01T07:44:59;16.20;99.90
24772;DHT22;12870;52.274;9.754;2022-07-01T07:47:25;16.20;99.90
24772;DHT22;12870;52.274;9.754;2022-07-01T07:49:51;16.20;99.90
24772;DHT22;12870;52.274;9.754;2022-07-01T07:52:17;16.20;99.90
24772;DHT22;12870;52.274;9.754;2022-07-01T07:54:42;16.20;99.90
24772;DHT22;12870;52.274;9.754;2022-07-01T07:57:08;16.20;99.90
24772;DHT22;12870;52.274;9.754;2022-07-01T07:59:35;16.20;99.90
24772;DHT22;12870;52.274;9.754;2022-07-01T08:02:01;16.30;99.90
24772;DHT22;12870;52.274;9.754;2022-07-01T08:04:27;16.40;99.90
24772;DHT22;12870;52.274;9.754;2022-07-01T08:06:53;16.50;99.90
24772;DHT22;12870;52.274;9.754;2022-07-01T08:09:18;16.70;99.90
24772;DHT22;12870;52.274;9.754;2022-07-01T08:11:44;16.60;99.90
24772;DHT22;12870;52.274;9.754;2022-07-01T08:14:10;16.60;99.90
24772;DHT22;12870;52.274;9.754;2022-07-01T08:16:36;16.50;99.90
24772;DHT22;12870;52.274;9.754;2022-07-01T08:19:02;16.60;99.90
24772;DHT22;12870;52.274;9.754;2022-07-01T08:21:28;16.70;99.90
24772;DHT22;12870;52.274;9.754;2022-07-01T08:23:54;16.80;99.90
24772;DHT22;12870;52.274;9.754;2022-07-01T08:26:20;16.80;99.90
24772;DHT22;12870;52.274;9.754;2022-07-01T08:28:46;16.70;99.90
24772;DHT22;12870;52.274;9.754;2022-07-01T08:31:12;16.70;99.90
24772;DHT22;12870;52.274;9.754;2022-07-01T08:33:38;16.60;99.90
24772;DHT22;12870;52.274;9.754;2022-07-01T08:36:05;16.60;99.90
24772;DHT22;12870;52.274;9.754;2022-07-01T08:38:31;16.60;99.90
24772;DHT22;12870;52.274;9.754;2022-07-01T08:40:57;16.60;99.90
24772;DHT22;12870;52.274;9.754;2022-07-01T08:43:23;16.60;99.90
24772;DHT22;12870;52.274;9.754;2022-07-01T08:45:50;16.60;99.90
24772;DHT22;12870;52.274;9.754;2022-07-01T08:48:16;16.70;99.90
24772;DHT22;12870;52.274;9.754;2022-07-01T08:50:42;16.70;99.90
24772;DHT22;12870;52.274;9.754;2022-07-01T08:53:10;16.70;99.90
24772;DHT22;12870;52.274;9.754;2022-07-01T08:55:36;16.70;99.90
24772;DHT22;12870;52.274;9.754;2022-07-01T08:58:23;16.80;99.90
24772;DHT22;12870;52.274;9.754;2022-07-01T09:00:49;16.70;99.90
24772;DHT22;12870;52.274;9.754;2022-07-01T09:03:15;16.80;99.90
24772;DHT22;12870;52.274;9.754;2022-07-01T09:05:51;16.70;99.90
24772;DHT22;12870;52.274;9.754;2022-07-01T09:08:18;16.70;99.90
24772;DHT22;12870;52.274;9.754;2022-07-01T09:10:45;16.70;99.90
24772;DHT22;12870;52.274;9.754;2022-07-01T09:13:12;16.70;99.90
24772;DHT22;12870;52.274;9.754;2022-07-01T09:15:40;16.80;99.90
24772;DHT22;12870;52.274;9.754;2022-07-01T09:18:11;16.90;99.90
24772;DHT22;12870;52.274;9.754;2022-07-01T09:20:45;17.00;99.90
24772;DHT22;12870;52.274;9.754;2022-07-01T09:23:15;16.90;99.90
24772;DHT22;12870;52.274;9.754;2022-07-01T09:25:46;16.70;99.90
24772;DHT22;12870;52.274;9.754;2022-07-01T09:30:41;16.70;99.90
24772;DHT22;12870;52.274;9.754;2022-07-01T09:33:09;16.80;99.90
24772;DHT22;12870;52.274;9.754;2022-07-01T09:35:36;16.80;99.90
24772;DHT22;12870;52.274;9.754;2022-07-01T09:38:03;16.80;99.90
24772;DHT22;12870;52.274;9.754;2022-07-01T09:43:20;16.90;99.90
24772;DHT22;12870;52.274;9.754;2022-07-01T09:48:23;17.10;99.90
24772;DHT22;12870;52.274;9.754;2022-07-01T09:50:50;17.20;99.90
24772;DHT22;12870;52.274;9.754;2022-07-01T09:53:16;17.30;99.90
24772;DHT22;12870;52.274;9.754;2022-07-01T09:55:42;17.40;99.90
24772;DHT22;12870;52.274;9.754;2022-07-01T09:58:08;17.40;99.90
24772;DHT22;12870;52.274;9.754;2022-07-01T10:00:36;17.50;99.90
24772;DHT22;12870;52.274;9.754;2022-07-01T10:03:04;17.70;99.90
24772;DHT22;12870;52.274;9.754;2022-07-01T10:05:44;17.70;99.90
24772;DHT22;12870;52.274;9.754;2022-07-01T10:13:41;17.80;99.90
24772;DHT22;12870;52.274;9.754;2022-07-01T10:16:08;17.70;99.90
24772;DHT22;12870;52.274;9.754;2022-07-01T10:18:35;17.90;99.90
24772;DHT22;12870;52.274;9.754;2022-07-01T10:21:00;17.80;99.90
24772;DHT22;12870;52.274;9.754;2022-07-01T10:23:40;17.60;99.90
24772;DHT22;12870;52.274;9.754;2022-07-01T10:26:06;17.70;99.90
24772;DHT22;12870;52.274;9.754;2022-07-01T10:31:15;17.50;99.90
24772;DHT22;12870;52.274;9.754;2022-07-01T10:36:32;17.40;99.90
24772;DHT22;12870;52.274;9.754;2022-07-01T10:44:19;17.70;99.90
24772;DHT22;12870;52.274;9.754;2022-07-01T10:46:55;17.70;99.90
24772;DHT22;12870;52.274;9.754;2022-07-01T10:52:12;17.90;99.90
24772;DHT22;12870;52.274;9.754;2022-07-01T11:05:15;18.60;99.90
24772;DHT22;12870;52.274;9.754;2022-07-01T11:07:43;18.60;99.90
24772;DHT22;12870;52.274;9.754;2022-07-01T11:10:12;18.80;99.90
24772;DHT22;12870;52.274;9.754;2022-07-01T11:12:40;19.00;99.90
24772;DHT22;12870;52.274;9.754;2022-07-01T11:15:06;18.80;99.90
24772;DHT22;12870;52.274;9.754;2022-07-01T11:17:36;18.60;99.90
24772;DHT22;12870;52.274;9.754;2022-07-01T11:20:07;18.50;99.90
24772;DHT22;12870;52.274;9.754;2022-07-01T11:22:34;18.50;99.90
24772;DHT22;12870;52.274;9.754;2022-07-01T11:25:01;18.50;99.90
24772;DHT22;12870;52.274;9.754;2022-07-01T11:27:28;18.60;99.90
24772;DHT22;12870;52.274;9.754;2022-07-01T11:29:56;18.70;99.90
24772;DHT22;12870;52.274;9.754;2022-07-01T11:32:26;18.60;99.90
24772;DHT22;12870;52.274;9.754;2022-07-01T11:34:52;18.70;99.90
24772;DHT22;12870;52.274;9.754;2022-07-01T11:37:17;18.60;99.90
24772;DHT22;12870;52.274;9.754;2022-07-01T11:40:10;18.60;99.90
24772;DHT22;12870;52.274;9.754;2022-07-01T11:42:36;18.60;99.90
24772;DHT22;12870;52.274;9.754;2022-07-01T11:45:03;18.40;99.90
24772;DHT22;12870;52.274;9.754;2022-07-01T11:47:30;18.40;99.90
24772;DHT22;12870;52.274;9.754;2022-07-01T11:49:57;18.30;99.90
24772;DHT22;12870;52.274;9.754;2022-07-01T11:52:23;18.30;99.90
24772;DHT22;12870;52.274;9.754;2022-07-01T11:54:51;18.40;99.90
24772;DHT22;12870;52.274;9.754;2022-07-01T11:57:22;18.50;99.90
24772;DHT22;12870;52.274;9.754;2022-07-01T11:59:53;18.50;99.90
24772;DHT22;12870;52.274;9.754;2022-07-01T12:02:21;18.40;99.90
24772;DHT22;12870;52.274;9.754;2022-07-01T12:04:50;18.40;99.90
24772;DHT22;12870;52.274;9.754;2022-07-01T12:07:19;18.40;99.90
24772;DHT22;12870;52.274;9.754;2022-07-01T12:09:48;18.40;99.90
24772;DHT22;12870;52.274;9.754;2022-07-01T12:12:19;18.40;99.90
24772;DHT22;12870;52.274;9.754;2022-07-01T12:14:52;18.50;99.90
24772;DHT22;12870;52.274;9.754;2022-07-01T12:17:19;18.50;99.90
24772;DHT22;12870;52.274;9.754;2022-07-01T12:19:46;18.50;99.90
24772;DHT22;12870;52.274;9.754;2022-07-01T12:22:18;18.30;99.90
24772;DHT22;12870;52.274;9.754;2022-07-01T12:24:48;18.50;99.90
24772;DHT22;12870;52.274;9.754;2022-07-01T12:27:14;18.30;99.90
24772;DHT22;12870;52.274;9.754;2022-07-01T12:32:11;18.30;99.90
24772;DHT22;12870;52.274;9.754;2022-07-01T12:34:42;18.30;99.90
24772;DHT22;12870;52.274;9.754;2022-07-01T12:37:13;18.40;99.90
24772;DHT22;12870;52.274;9.754;2022-07-01T12:39:47;18.40;99.90
24772;DHT22;12870;52.274;9.754;2022-07-01T12:42:43;18.40;99.90
24772;DHT22;12870;52.274;9.754;2022-07-01T12:45:11;18.40;99.90
24772;DHT22;12870;52.274;9.754;2022-07-01T12:47:43;18.60;99.90
24772;DHT22;12870;52.274;9.754;2022-07-01T12:52:43;18.80;99.90
24772;DHT22;12870;52.274;9.754;2022-07-01T12:55:20;18.60;99.90
24772;DHT22;12870;52.274;9.754;2022-07-01T12:57:51;18.50;99.90
24772;DHT22;12870;52.274;9.754;2022-07-01T13:00:18;18.60;99.90
24772;DHT22;12870;52.274;9.754;2022-07-01T13:02:44;18.60;99.90
24772;DHT22;12870;52.274;9.754;2022-07-01T13:05:11;18.60;99.90
24772;DHT22;12870;52.274;9.754;2022-07-01T13:07:37;18.60;99.90
24772;DHT22;12870;52.274;9.754;2022-07-01T13:10:03;18.80;99.90
24772;DHT22;12870;52.274;9.754;2022-07-01T13:12:30;18.80;99.90
24772;DHT22;12870;52.274;9.754;2022-07-01T13:14:55;18.80;99.90
24772;DHT22;12870;52.274;9.754;2022-07-01T13:17:23;19.00;99.90
24772;DHT22;12870;52.274;9.754;2022-07-01T13:19:49;19.20;99.90
24772;DHT22;12870;52.274;9.754;2022-07-01T13:22:15;19.30;99.90
24772;DHT22;12870;52.274;9.754;2022-07-01T13:24:41;19.40;99.90
24772;DHT22;12870;52.274;9.754;2022-07-01T13:27:07;19.50;99.90
24772;DHT22;12870;52.274;9.754;2022-07-01T13:29:33;19.60;99.90
24772;DHT22;12870;52.274;9.754;2022-07-01T13:31:58;19.90;99.90
24772;DHT22;12870;52.274;9.754;2022-07-01T13:34:24;19.90;99.90
24772;DHT22;12870;52.274;9.754;2022-07-01T13:36:50;20.00;99.90
24772;DHT22;12870;52.274;9.754;2022-07-01T13:39:15;20.20;99.90
24772;DHT22;12870;52.274;9.754;2022-07-01T13:41:41;20.50;99.90
24772;DHT22;12870;52.274;9.754;2022-07-01T13:44:07;20.70;99.90
24772;DHT22;12870;52.274;9.754;2022-07-01T13:46:33;20.70;99.90
24772;DHT22;12870;52.274;9.754;2022-07-01T13:49:00;20.70;99.90
24772;DHT22;12870;52.274;9.754;2022-07-01T13:51:26;20.40;99.90
24772;DHT22;12870;52.274;9.754;2022-07-01T13:53:52;20.60;99.90
24772;DHT22;12870;52.274;9.754;2022-07-01T13:56:18;20.60;99.90
24772;DHT22;12870;52.274;9.754;2022-07-01T13:58:43;20.90;99.90
24772;DHT22;12870;52.274;9.754;2022-07-01T14:01:09;21.60;99.90
24772;DHT22;12870;52.274;9.754;2022-07-01T14:03:35;21.80;99.90
24772;DHT22;12870;52.274;9.754;2022-07-01T14:06:00;21.80;99.90
24772;DHT22;12870;52.274;9.754;2022-07-01T14:08:26;21.70;99.90
24772;DHT22;12870;52.274;9.754;2022-07-01T14:10:53;21.40;99.90
24772;DHT22;12870;52.274;9.754;2022-07-01T14:13:19;21.00;99.90
24772;DHT22;12870;52.274;9.754;2022-07-01T14:15:48;20.60;99.90
24772;DHT22;12870;52.274;9.754;2022-07-01T14:18:14;20.50;99.90
24772;DHT22;12870;52.274;9.754;2022-07-01T14:20:41;20.40;99.90
24772;DHT22;12870;52.274;9.754;2022-07-01T14:23:07;20.30;99.90
24772;DHT22;12870;52.274;9.754;2022-07-01T14:25:33;20.20;99.90
24772;DHT22;12870;52.274;9.754;2022-07-01T14:27:58;20.30;99.90
24772;DHT22;12870;52.274;9.754;2022-07-01T14:30:24;20.10;99.90
24772;DHT22;12870;52.274;9.754;2022-07-01T14:32:50;20.20;99.90
24772;DHT22;12870;52.274;9.754;2022-07-01T14:35:15;20.10;99.90
24772;DHT22;12870;52.274;9.754;2022-07-01T14:37:41;20.10;99.90
24772;DHT22;12870;52.274;9.754;2022-07-01T14:40:09;20.10;99.90
24772;DHT22;12870;52.274;9.754;2022-07-01T14:42:37;20.10;99.90
24772;DHT22;12870;52.274;9.754;2022-07-01T14:45:03;20.20;99.90
24772;DHT22;12870;52.274;9.754;2022-07-01T14:47:29;20.30;99.90
24772;DHT22;12870;52.274;9.754;2022-07-01T14:49:55;20.00;99.90
24772;DHT22;12870;52.274;9.754;2022-07-01T14:52:22;19.90;99.90
24772;DHT22;12870;52.274;9.754;2022-07-01T14:54:49;20.00;99.90
24772;DHT22;12870;52.274;9.754;2022-07-01T14:57:15;20.20;99.90
24772;DHT22;12870;52.274;9.754;2022-07-01T14:59:41;20.40;99.90
24772;DHT22;12870;52.274;9.754;2022-07-01T15:02:07;20.70;99.90
24772;DHT22;12870;52.274;9.754;2022-07-01T15:04:33;21.10;99.90
24772;DHT22;12870;52.274;9.754;2022-07-01T15:07:00;21.30;99.90
24772;DHT22;12870;52.274;9.754;2022-07-01T15:09:26;21.60;99.90
24772;DHT22;12870;52.274;9.754;2022-07-01T15:11:51;21.60;99.90
24772;DHT22;12870;52.274;9.754;2022-07-01T15:14:18;21.70;99.90
24772;DHT22;12870;52.274;9.754;2022-07-01T15:16:44;21.20;99.90
24772;DHT22;12870;52.274;9.754;2022-07-01T15:19:10;21.00;99.90
24772;DHT22;12870;52.274;9.754;2022-07-01T15:21:36;21.00;99.90
24772;DHT22;12870;52.274;9.754;2022-07-01T15:24:03;21.30;99.90
24772;DHT22;12870;52.274;9.754;2022-07-01T15:26:29;21.30;99.90
24772;DHT22;12870;52.274;9.754;2022-07-01T15:28:54;21.70;99.90
24772;DHT22;12870;52.274;9.754;2022-07-01T15:31:20;21.70;99.90
24772;DHT22;12870;52.274;9.754;2022-07-01T15:33:46;21.80;99.90
24772;DHT22;12870;52.274;9.754;2022-07-01T15:36:12;21.80;99.90
24772;DHT22;12870;52.274;9.754;2022-07-01T15:38:38;21.60;99.90
24772;DHT22;12870;52.274;9.754;2022-07-01T15:41:04;21.80;99.90
24772;DHT22;12870;52.274;9.754;2022-07-01T15:43:32;21.80;99.90
24772;DHT22;12870;52.274;9.754;2022-07-01T15:45:59;22.00;99.90
24772;DHT22;12870;52.274;9.754;2022-07-01T15:48:24;22.20;99.90
24772;DHT22;12870;52.274;9.754;2022-07-01T15:50:50;22.40;99.90
24772;DHT22;12870;52.274;9.754;2022-07-01T15:53:19;22.40;99.90
24772;DHT22;12870;52.274;9.754;2022-07-01T15:55:47;22.70;99.90
24772;DHT22;12870;52.274;9.754;2022-07-01T15:58:17;22.40;99.90
24772;DHT22;12870;52.274;9.754;2022-07-01T16:00:48;22.70;99.90
24772;DHT22;12870;52.274;9.754;2022-07-01T16:03:15;23.00;99.90
24772;DHT22;12870;52.274;9.754;2022-07-01T16:05:48;23.00;99.90
24772;DHT22;12870;52.274;9.754;2022-07-01T16:08:19;23.10;99.90
24772;DHT22;12870;52.274;9.754;2022-07-01T16:10:50;23.30;99.90